createdAt,value
2022-12-12T17:05:27.866Z,-0.26
2022-12-12T17:08:15.301Z,-0.28
2022-12-12T17:11:10.215Z,-0.28
2022-12-12T17:13:56.077Z,-0.20
2022-12-12T17:16:41.607Z,-0.19
2022-12-12T17:19:27.007Z,-0.20
2022-12-12T17:22:12.295Z,-0.14
2022-12-12T17:24:57.544Z,-0.09
2022-12-12T17:27:43.112Z,-0.14
2022-12-12T17:30:28.306Z,-0.13
2022-12-12T17:33:19.799Z,-0.20
2022-12-12T17:36:06.730Z,-0.29
2022-12-12T17:38:51.917Z,-0.22
2022-12-12T17:41:36.994Z,-0.24
2022-12-12T17:44:23.674Z,-0.30
2022-12-12T17:47:08.898Z,-0.29
2022-12-12T17:49:54.232Z,-0.32
2022-12-12T17:52:39.470Z,-0.28
2022-12-12T17:55:53.976Z,-0.26
2022-12-12T17:58:41.211Z,-0.20
2022-12-12T18:01:29.309Z,-0.22
2022-12-12T18:04:15.137Z,-0.25
2022-12-12T18:07:00.326Z,-0.27
2022-12-12T18:09:46.052Z,-0.26
2022-12-12T18:12:31.770Z,-0.29
2022-12-12T18:15:17.013Z,-0.33
2022-12-12T18:18:02.069Z,-0.29
2022-12-12T18:20:47.848Z,-0.26
2022-12-12T18:23:33.929Z,-0.21
2022-12-12T18:26:22.246Z,-0.23
2022-12-12T18:29:08.503Z,-0.21
2022-12-12T18:31:54.349Z,-0.20
2022-12-12T18:34:40.375Z,-0.26
2022-12-12T18:37:25.563Z,-0.32
2022-12-12T18:40:11.180Z,-0.33
2022-12-12T18:42:56.562Z,-0.29
2022-12-12T18:45:41.778Z,-0.28
2022-12-12T18:48:27.310Z,-0.35
2022-12-12T18:51:16.501Z,-0.40
2022-12-12T18:54:05.360Z,-0.39
2022-12-12T18:56:53.506Z,-0.34
2022-12-12T18:59:39.335Z,-0.32
2022-12-12T19:02:24.526Z,-0.29
2022-12-12T19:05:13.243Z,-0.31
2022-12-12T19:07:58.709Z,-0.30
2022-12-12T19:10:46.326Z,-0.32
2022-12-12T19:13:31.531Z,-0.32
2022-12-12T19:16:20.956Z,-0.31
2022-12-12T19:19:06.382Z,-0.32
2022-12-12T19:21:52.395Z,-0.32
2022-12-12T19:24:40.905Z,-0.42
2022-12-12T19:27:28.306Z,-0.42
2022-12-12T19:30:15.672Z,-0.37
2022-12-12T19:33:01.016Z,-0.39
2022-12-12T19:35:46.235Z,-0.43
2022-12-12T19:38:31.785Z,-0.43
2022-12-12T19:41:19.913Z,-0.51
2022-12-12T19:44:08.793Z,-0.46
2022-12-12T19:46:53.957Z,-0.46
2022-12-12T19:49:39.569Z,-0.45
2022-12-12T19:52:24.960Z,-0.42
2022-12-12T19:55:10.319Z,-0.35
2022-12-12T19:57:55.865Z,-0.33
2022-12-12T20:00:41.018Z,-0.32
2022-12-12T20:03:26.358Z,-0.36
2022-12-12T20:06:11.660Z,-0.35
2022-12-12T20:09:00.420Z,-0.29
2022-12-12T20:11:46.625Z,-0.28
2022-12-12T20:14:33.583Z,-0.19
2022-12-12T20:17:18.822Z,-0.15
2022-12-12T20:20:04.947Z,-0.14
2022-12-12T20:22:50.271Z,-0.13
2022-12-12T20:25:40.697Z,-0.12
2022-12-12T20:28:26.110Z,-0.12
2022-12-12T20:31:14.532Z,-0.12
2022-12-12T20:34:00.478Z,-0.09
2022-12-12T20:36:46.410Z,-0.04
2022-12-12T20:39:31.725Z,-0.01
2022-12-12T20:42:16.830Z,-0.11
2022-12-12T20:45:03.124Z,-0.13
2022-12-12T20:47:48.500Z,-0.06
2022-12-12T20:50:33.672Z,-0.06
2022-12-12T20:53:19.902Z,-0.03
2022-12-12T20:56:11.050Z,-0.05
2022-12-12T20:58:59.870Z,-0.06
2022-12-12T21:01:47.077Z,-0.03
2022-12-12T21:04:32.855Z,-0.05
2022-12-12T21:07:18.134Z,-0.04
2022-12-12T21:10:04.053Z,-0.14
2022-12-12T21:12:49.376Z,-0.13
2022-12-12T21:15:35.658Z,-0.09
2022-12-12T21:18:21.069Z,-0.19
2022-12-12T21:21:10.684Z,-0.28
2022-12-12T21:23:56.205Z,-0.36
2022-12-12T21:26:41.907Z,-0.36
2022-12-12T21:29:27.119Z,-0.34
2022-12-12T21:32:12.247Z,-0.36
2022-12-12T21:34:57.733Z,-0.32
2022-12-12T21:37:43.118Z,-0.29
2022-12-12T21:40:28.833Z,-0.29
2022-12-12T21:43:14.311Z,-0.22
2022-12-12T21:46:04.638Z,-0.29
2022-12-12T21:49:10.501Z,-0.32
2022-12-12T21:51:58.165Z,-0.25
2022-12-12T21:54:43.393Z,-0.21
2022-12-12T21:57:29.083Z,-0.17
2022-12-12T22:00:16.116Z,-0.13
2022-12-12T22:03:01.677Z,-0.14
2022-12-12T22:05:47.078Z,-0.11
2022-12-12T22:08:32.494Z,-0.14
2022-12-12T22:11:23.868Z,-0.15
2022-12-12T22:14:24.596Z,-0.13
2022-12-12T22:17:09.625Z,-0.19
2022-12-12T22:19:57.347Z,-0.15
2022-12-12T22:22:42.787Z,-0.07
2022-12-12T22:25:29.062Z,-0.10
2022-12-12T22:28:14.583Z,-0.14
2022-12-12T22:31:04.755Z,-0.19
2022-12-12T22:33:59.349Z,-0.13
2022-12-12T22:36:46.055Z,-0.09
2022-12-12T22:39:31.229Z,-0.07
2022-12-12T22:42:16.671Z,-0.13
2022-12-12T22:45:02.570Z,-0.16
2022-12-12T22:47:47.942Z,-0.17
2022-12-12T22:50:33.419Z,-0.19
2022-12-12T22:53:18.747Z,-0.23
2022-12-12T22:56:04.109Z,-0.21
2022-12-12T22:58:49.529Z,-0.26
2022-12-12T23:01:34.831Z,-0.31
2022-12-12T23:04:20.267Z,-0.27
2022-12-12T23:07:05.528Z,-0.18
2022-12-12T23:09:53.615Z,-0.14
2022-12-12T23:12:39.850Z,-0.20
2022-12-12T23:15:25.314Z,-0.20
2022-12-12T23:18:10.642Z,-0.19
2022-12-12T23:20:56.135Z,-0.16
2022-12-12T23:23:41.878Z,-0.19
2022-12-12T23:26:30.073Z,-0.22
2022-12-12T23:29:16.811Z,-0.19
2022-12-12T23:32:03.000Z,-0.13
2022-12-12T23:34:49.136Z,-0.18
2022-12-12T23:37:34.365Z,-0.22
2022-12-12T23:40:19.566Z,-0.27
2022-12-12T23:43:04.534Z,-0.24
2022-12-12T23:45:50.081Z,-0.18
2022-12-12T23:48:35.326Z,-0.09
2022-12-12T23:51:20.681Z,-0.05
2022-12-12T23:54:09.913Z,-0.07
2022-12-12T23:57:23.855Z,-0.03
